Time;durP1;ratioP1;P1;durP2;ratioP2;P2;SDS_P1;SDS_P2;PMS_P1;PMS_P2;Temp;Humidity;BMP_temperature;BMP_pressure;BME280_temperature;BME280_humidity;BME280_pressure;Samples;Min_cycle;Max_cycle;Signal;HPM_P1;HPM_P2
2023/01/24 00:00:07;;;;;;;24.20;13.57;;;4.90;92.80;;;;;;5054496;28;20416;-80
2023/01/24 00:02:32;;;;;;;19.13;11.93;;;4.80;92.80;;;;;;5037487;28;20037;-81
2023/01/24 00:04:58;;;;;;;21.77;13.37;;;4.80;92.90;;;;;;5055370;28;20052;-80
2023/01/24 00:07:24;;;;;;;21.03;12.83;;;4.80;92.80;;;;;;5054028;28;20120;-80
2023/01/24 00:09:49;;;;;;;21.20;13.47;;;4.80;92.80;;;;;;5021323;28;20106;-80
2023/01/24 00:12:15;;;;;;;22.67;13.37;;;4.80;92.80;;;;;;5054285;28;20483;-80
2023/01/24 00:14:41;;;;;;;22.83;13.20;;;4.80;92.80;;;;;;5054515;28;20548;-80
2023/01/24 00:17:09;;;;;;;18.50;11.57;;;4.80;92.90;;;;;;5021084;28;20159;-81
2023/01/24 00:19:37;;;;;;;20.13;11.77;;;4.80;92.90;;;;;;5021443;28;20021;-80
2023/01/24 00:22:03;;;;;;;20.10;12.30;;;4.80;92.90;;;;;;5054011;28;20107;-80
2023/01/24 00:24:32;;;;;;;22.83;13.20;;;4.80;92.90;;;;;;5038155;28;20037;-81
2023/01/24 00:26:58;;;;;;;20.80;12.53;;;4.70;92.90;;;;;;5055340;28;20036;-81
2023/01/24 00:29:24;;;;;;;20.53;12.47;;;4.80;92.90;;;;;;5053812;28;20021;-81
2023/01/24 00:31:49;;;;;;;23.10;12.40;;;4.80;93.00;;;;;;5054100;28;20488;-80
2023/01/24 00:34:15;;;;;;;21.60;12.20;;;4.80;93.00;;;;;;5053344;28;20075;-81
2023/01/24 00:36:41;;;;;;;20.30;12.00;;;4.80;93.00;;;;;;5053951;28;20033;-81
2023/01/24 00:39:06;;;;;;;18.17;10.67;;;4.80;93.10;;;;;;5053708;28;20021;-80
2023/01/24 00:41:34;;;;;;;24.13;11.10;;;4.80;93.10;;;;;;5020786;28;20033;-81
2023/01/24 00:44:00;;;;;;;22.23;11.23;;;4.80;93.00;;;;;;5053889;28;20040;-81
2023/01/24 00:46:25;;;;;;;17.77;11.40;;;4.80;93.10;;;;;;5020809;28;20042;-80
2023/01/24 00:48:51;;;;;;;18.40;11.30;;;4.80;93.00;;;;;;5036655;28;20111;-80
2023/01/24 00:51:16;;;;;;;17.27;9.90;;;4.70;93.00;;;;;;5053590;28;20047;-80
2023/01/24 00:53:42;;;;;;;20.33;10.83;;;4.80;93.00;;;;;;5054295;28;20416;-81
2023/01/24 00:56:08;;;;;;;19.37;10.77;;;4.70;92.90;;;;;;5053596;28;20036;-80
2023/01/24 00:58:34;;;;;;;16.53;9.77;;;4.70;93.00;;;;;;5053680;28;20108;-80
2023/01/24 01:01:02;;;;;;;17.23;10.13;;;4.70;93.00;;;;;;5054612;28;20078;-81
2023/01/24 01:03:28;;;;;;;18.13;10.70;;;4.70;93.00;;;;;;5037135;28;20489;-80
2023/01/24 01:06:02;;;;;;;16.53;9.33;;;4.70;92.90;;;;;;5053772;28;20175;-80
2023/01/24 01:08:28;;;;;;;16.70;9.30;;;4.70;93.00;;;;;;5052224;28;20112;-80
2023/01/24 01:10:54;;;;;;;18.57;10.53;;;4.70;92.90;;;;;;5036892;28;20171;-80
2023/01/24 01:13:20;;;;;;;18.83;10.67;;;4.60;92.90;;;;;;5037124;28;20033;-80
2023/01/24 01:15:45;;;;;;;19.50;10.50;;;4.70;92.90;;;;;;5053697;28;20419;-80
2023/01/24 01:18:11;;;;;;;17.33;9.53;;;4.70;92.90;;;;;;5036630;28;20492;-80
2023/01/24 01:20:37;;;;;;;18.60;10.27;;;4.70;92.90;;;;;;5054222;28;20079;-80
2023/01/24 01:23:02;;;;;;;17.07;9.70;;;4.60;92.90;;;;;;5053488;28;20045;-81
2023/01/24 01:25:28;;;;;;;17.17;9.77;;;4.80;93.00;;;;;;5036229;28;20544;-80
2023/01/24 01:27:54;;;;;;;18.73;10.60;;;4.60;93.00;;;;;;5052990;28;20035;-80
2023/01/24 01:30:20;;;;;;;17.30;9.57;;;4.60;92.90;;;;;;5035655;28;20428;-81
2023/01/24 01:32:45;;;;;;;20.23;11.00;;;4.60;93.00;;;;;;5052722;28;20039;-80
2023/01/24 01:35:11;;;;;;;18.37;10.97;;;4.60;92.90;;;;;;5052292;28;20040;-80
2023/01/24 01:37:37;;;;;;;19.03;10.63;;;4.70;93.00;;;;;;5036096;28;20040;-80
2023/01/24 01:40:03;;;;;;;20.97;11.73;;;4.60;92.90;;;;;;5053573;28;20021;-80
2023/01/24 01:42:47;;;;;;;19.33;11.63;;;4.70;92.90;;;;;;5052610;28;20029;-79
2023/01/24 01:45:31;;;;;;;19.48;10.77;;;4.60;92.90;;;;;;5052521;28;20091;-79
2023/01/24 01:47:57;;;;;;;19.20;11.00;;;4.60;92.90;;;;;;5052855;28;20045;-80
2023/01/24 01:50:36;;;;;;;20.83;12.23;;;4.60;92.90;;;;;;5053690;28;20029;-80
2023/01/24 01:53:02;;;;;;;19.30;10.23;;;4.60;93.00;;;;;;5054089;28;20028;-79
2023/01/24 01:55:33;;;;;;;20.07;11.70;;;4.60;93.00;;;;;;5054030;28;20465;-80
2023/01/24 01:57:59;;;;;;;22.53;11.67;;;4.60;93.10;;;;;;5053841;28;20029;-80
2023/01/24 02:00:29;;;;;;;20.43;10.83;;;4.60;93.10;;;;;;5052449;28;20056;-79
2023/01/24 02:05:49;;;;;;;24.63;11.80;;;4.60;93.20;;;;;;5053452;28;20082;-80
2023/01/24 02:08:20;;;;;;;20.97;11.67;;;4.60;93.30;;;;;;5035799;28;20432;-81
2023/01/24 02:13:31;;;;;;;;;;;4.60;93.30;;;;;;5053032;28;20539;-81
2023/01/24 02:16:03;;;;;;;20.50;11.53;;;4.50;93.30;;;;;;5054431;28;19927;-81
2023/01/24 02:18:36;;;;;;;21.40;11.17;;;4.60;93.40;;;;;;5048758;28;20029;-80
2023/01/24 02:21:06;;;;;;;18.75;11.05;;;4.60;93.40;;;;;;5063414;28;20021;-81
2023/01/24 02:23:47;;;;;;;22.40;12.27;;;4.60;93.40;;;;;;5054876;28;20044;-80
2023/01/24 02:26:16;;;;;;;19.80;11.33;;;4.60;93.50;;;;;;5053154;28;20079;-81
2023/01/24 02:29:00;;;;;;;19.63;10.90;;;4.60;93.50;;;;;;5052334;28;20025;-81
2023/01/24 02:31:26;;;;;;;19.70;10.85;;;4.50;93.50;;;;;;5052056;28;20484;-81
2023/01/24 02:33:52;;;;;;;24.97;12.53;;;4.60;93.50;;;;;;5035798;28;20025;-80
2023/01/24 02:36:22;;;;;;;21.07;11.93;;;4.50;93.50;;;;;;5051871;28;20069;-80
2023/01/24 02:39:11;;;;;;;23.53;13.73;;;4.50;93.50;;;;;;5053366;28;20047;-81
2023/01/24 02:41:48;;;;;;;21.80;12.57;;;4.50;93.60;;;;;;5051679;28;20024;-80
2023/01/24 02:44:21;;;;;;;26.20;13.63;;;4.50;93.60;;;;;;5051670;28;20075;-80
2023/01/24 02:46:46;;;;;;;22.40;13.80;;;4.50;93.60;;;;;;5052366;28;20021;-81
2023/01/24 02:49:12;;;;;;;21.57;12.67;;;4.40;93.60;;;;;;5052201;28;20465;-80
2023/01/24 02:54:23;;;;;;;24.47;13.83;;;4.50;93.70;;;;;;5052288;28;20111;-81
2023/01/24 02:59:32;;;;;;;23.88;13.63;;;4.50;93.70;;;;;;5052193;28;20043;-81
2023/01/24 03:01:58;;;;;;;23.10;13.43;;;4.40;93.60;;;;;;5051679;28;20120;-81
2023/01/24 03:04:24;;;;;;;24.50;13.57;;;4.40;93.70;;;;;;5018748;28;20069;-80
2023/01/24 03:06:49;;;;;;;24.37;13.17;;;4.40;93.70;;;;;;5051129;28;20188;-79
2023/01/24 03:09:19;;;;;;;26.33;14.77;;;4.40;93.70;;;;;;5052472;28;20059;-81
2023/01/24 03:11:49;;;;;;;23.50;14.00;;;4.40;93.80;;;;;;5053366;28;20029;-79
2023/01/24 03:36:19;;;;;;;25.17;13.00;;;4.20;93.80;;;;;;5055771;28;20050;-79
2023/01/24 03:41:30;;;;;;;26.17;14.67;;;4.30;93.90;;;;;;5055660;28;20143;-80
2023/01/24 03:43:55;;;;;;;23.10;13.67;;;4.20;93.90;;;;;;5055053;28;20156;-80
2023/01/24 03:46:21;;;;;;;24.67;14.13;;;4.20;93.90;;;;;;5056145;28;20032;-80
2023/01/24 03:48:46;;;;;;;23.37;14.70;;;4.10;93.90;;;;;;5038187;28;20489;-80
2023/01/24 03:53:56;;;;;;;27.17;16.83;;;4.20;94.00;;;;;;5055835;28;20072;-81
2023/01/24 03:56:22;;;;;;;26.07;16.20;;;4.20;93.90;;;;;;5021537;28;20059;-80
2023/01/24 03:58:48;;;;;;;26.37;15.73;;;4.20;93.90;;;;;;5037710;28;20638;-81
2023/01/24 04:01:14;;;;;;;26.33;15.73;;;4.20;93.90;;;;;;5054689;28;20029;-81
2023/01/24 04:03:39;;;;;;;26.93;16.23;;;4.20;94.00;;;;;;5054411;28;20481;-81
2023/01/24 04:06:05;;;;;;;27.33;16.17;;;4.20;94.00;;;;;;5053955;28;20108;-82
2023/01/24 04:08:31;;;;;;;26.50;16.83;;;4.20;94.10;;;;;;5054782;28;20029;-82
2023/01/24 04:10:57;;;;;;;27.13;14.97;;;4.20;94.10;;;;;;5038603;28;20056;-81
2023/01/24 04:13:23;;;;;;;27.27;16.10;;;4.20;94.10;;;;;;5038071;28;20021;-81
2023/01/24 04:15:48;;;;;;;27.43;15.60;;;4.20;94.10;;;;;;5038163;28;20029;-82
2023/01/24 04:18:14;;;;;;;27.27;16.47;;;4.10;94.00;;;;;;5054498;28;20031;-81
2023/01/24 04:20:40;;;;;;;28.20;16.00;;;4.20;94.10;;;;;;5054790;28;20469;-81
2023/01/24 04:23:07;;;;;;;27.63;16.57;;;4.20;94.10;;;;;;5038137;28;20045;-80
2023/01/24 04:25:33;;;;;;;28.67;16.87;;;4.20;94.10;;;;;;5062216;28;20029;-80
2023/01/24 04:28:00;;;;;;;26.90;15.57;;;4.20;94.20;;;;;;5067584;28;20029;-80
2023/01/24 04:30:25;;;;;;;26.07;15.53;;;4.20;94.20;;;;;;5057934;28;20128;-81
2023/01/24 04:32:51;;;;;;;27.40;15.70;;;4.20;94.30;;;;;;5053975;28;20112;-81
2023/01/24 04:35:19;;;;;;;29.50;16.57;;;4.20;94.30;;;;;;5053296;28;20170;-81
2023/01/24 04:37:45;;;;;;;29.67;17.17;;;4.20;94.40;;;;;;5054212;28;20032;-81
2023/01/24 04:40:11;;;;;;;24.63;15.47;;;4.20;94.40;;;;;;5055223;28;20029;-81
2023/01/24 04:42:40;;;;;;;29.40;18.57;;;4.20;94.40;;;;;;5036586;28;20049;-81
2023/01/24 04:45:07;;;;;;;32.00;18.33;;;4.20;94.40;;;;;;5054914;28;20032;-81
2023/01/24 04:47:32;;;;;;;27.73;17.00;;;4.20;94.40;;;;;;5055451;28;20033;-80
2023/01/24 04:49:58;;;;;;;31.77;18.03;;;4.00;94.30;;;;;;5037468;28;20174;-81
2023/01/24 04:52:24;;;;;;;28.57;17.23;;;4.10;94.30;;;;;;5037416;28;20036;-81
2023/01/24 04:54:51;;;;;;;28.50;16.53;;;4.10;94.40;;;;;;5053764;28;20029;-81
2023/01/24 04:57:17;;;;;;;28.33;15.70;;;4.20;94.40;;;;;;5053375;28;20028;-81
2023/01/24 04:59:43;;;;;;;25.87;16.00;;;4.20;94.50;;;;;;5037292;28;20029;-81
2023/01/24 05:02:08;;;;;;;25.37;16.07;;;4.10;94.50;;;;;;5020741;28;20082;-80
2023/01/24 05:04:34;;;;;;;31.33;18.23;;;4.10;94.50;;;;;;5053434;28;20133;-81
2023/01/24 05:07:01;;;;;;;29.27;17.17;;;4.10;94.50;;;;;;5036858;28;20025;-81
2023/01/24 05:09:26;;;;;;;26.23;16.07;;;4.10;94.50;;;;;;5037124;28;20057;-81
2023/01/24 05:11:52;;;;;;;29.40;16.93;;;4.00;94.50;;;;;;5054056;28;20072;-81
2023/01/24 05:14:17;;;;;;;33.60;18.97;;;4.10;94.50;;;;;;5020763;28;20468;-81
2023/01/24 05:16:43;;;;;;;31.83;18.33;;;4.10;94.60;;;;;;5054122;28;20061;-81
2023/01/24 05:19:09;;;;;;;29.53;17.83;;;4.10;94.60;;;;;;5020542;28;20035;-80
2023/01/24 05:21:34;;;;;;;31.17;18.43;;;4.00;94.60;;;;;;5036859;28;20501;-80
2023/01/24 05:24:00;;;;;;;30.37;18.83;;;4.00;94.60;;;;;;5036627;28;20033;-81
2023/01/24 05:26:26;;;;;;;29.63;17.83;;;4.10;94.70;;;;;;5037055;28;20058;-81
2023/01/24 05:28:53;;;;;;;28.60;18.00;;;4.00;94.70;;;;;;5053019;28;20044;-80
2023/01/24 05:31:19;;;;;;;33.17;18.90;;;4.00;94.80;;;;;;5053041;28;20116;-81
2023/01/24 05:33:45;;;;;;;31.07;17.80;;;4.10;94.80;;;;;;5053197;28;20025;-80
2023/01/24 05:36:17;;;;;;;35.93;21.00;;;4.00;94.80;;;;;;5052607;28;20029;-80
2023/01/24 05:38:43;;;;;;;35.57;20.30;;;4.00;94.80;;;;;;5054309;28;20025;-80
2023/01/24 05:41:11;;;;;;;36.53;20.20;;;4.00;94.80;;;;;;5052931;28;20033;-80
2023/01/24 05:43:37;;;;;;;30.47;19.50;;;4.00;94.80;;;;;;5052801;28;20036;-80
2023/01/24 05:46:10;;;;;;;32.90;19.77;;;4.00;94.80;;;;;;5052636;28;20028;-81
2023/01/24 05:48:36;;;;;;;30.43;18.80;;;4.00;94.80;;;;;;5053856;28;20048;-81
2023/01/24 05:51:05;;;;;;;30.33;18.07;;;4.00;94.90;;;;;;5036156;28;20039;-81
2023/01/24 05:53:33;;;;;;;32.47;19.60;;;4.00;95.00;;;;;;5052667;28;20088;-81
2023/01/24 05:56:01;;;;;;;31.70;18.53;;;4.10;95.10;;;;;;5052276;28;20024;-81
2023/01/24 05:58:29;;;;;;;38.97;22.07;;;4.00;95.10;;;;;;5052458;28;20029;-81
2023/01/24 06:00:54;;;;;;;38.67;22.33;;;4.00;95.30;;;;;;5052903;28;20035;-80
2023/01/24 06:03:21;;;;;;;35.70;20.63;;;3.90;95.00;;;;;;5035834;28;20128;-80
2023/01/24 06:05:49;;;;;;;32.10;18.93;;;4.00;95.00;;;;;;5053083;28;20485;-81
2023/01/24 06:08:15;;;;;;;33.80;20.27;;;4.00;95.00;;;;;;5052630;28;20028;-81
2023/01/24 06:10:43;;;;;;;31.57;20.27;;;3.90;95.00;;;;;;5052764;28;20021;-81
2023/01/24 06:13:10;;;;;;;33.80;20.70;;;3.90;95.00;;;;;;5052067;28;20017;-80
2023/01/24 06:15:36;;;;;;;34.93;19.67;;;3.90;95.00;;;;;;5052724;28;20021;-80
2023/01/24 06:18:01;;;;;;;33.30;18.80;;;3.90;95.00;;;;;;5064066;28;20068;-80
2023/01/24 06:20:27;;;;;;;31.80;19.50;;;3.90;95.00;;;;;;5050506;28;20055;-81
2023/01/24 06:23:10;;;;;;;32.37;19.93;;;3.90;95.00;;;;;;5067365;28;20027;-81
2023/01/24 06:25:36;;;;;;;34.70;20.63;;;3.90;95.00;;;;;;5051341;28;20063;-81
2023/01/24 06:28:02;;;;;;;32.57;18.67;;;3.90;95.00;;;;;;5050471;28;20029;-81
2023/01/24 06:30:28;;;;;;;34.27;19.67;;;3.90;95.30;;;;;;5037022;28;20029;-80
2023/01/24 06:33:02;;;;;;;31.37;17.77;;;3.90;95.00;;;;;;5062214;28;20392;-80
2023/01/24 06:35:59;;;;;;;34.17;19.07;;;3.90;95.00;;;;;;5038813;28;20032;-80
2023/01/24 06:38:25;;;;;;;30.63;18.53;;;3.90;95.00;;;;;;5041731;28;20034;-81
2023/01/24 06:41:00;;;;;;;30.77;18.17;;;3.90;95.00;;;;;;5026817;28;20108;-81
2023/01/24 06:43:26;;;;;;;34.57;19.83;;;3.80;95.00;;;;;;5041615;28;20124;-81
2023/01/24 06:45:51;;;;;;;32.00;19.00;;;3.80;95.00;;;;;;5024073;28;20040;-81
2023/01/24 06:48:17;;;;;;;30.90;18.23;;;3.90;95.10;;;;;;5041976;28;20044;-81
2023/01/24 06:50:43;;;;;;;33.37;19.57;;;3.90;95.10;;;;;;5041167;28;20382;-81
2023/01/24 06:53:10;;;;;;;30.57;18.90;;;3.80;95.10;;;;;;5032350;28;20021;-81
2023/01/24 06:55:36;;;;;;;30.93;18.63;;;3.90;95.10;;;;;;5030542;28;20033;-81
2023/01/24 06:58:04;;;;;;;31.67;18.27;;;3.90;95.20;;;;;;5052041;28;20111;-81
2023/01/24 07:00:30;;;;;;;29.77;18.13;;;3.90;95.20;;;;;;5051571;28;20072;-81
2023/01/24 07:03:05;;;;;;;34.83;20.30;;;3.90;95.20;;;;;;5051244;28;20029;-80
2023/01/24 07:05:32;;;;;;;33.90;20.07;;;3.90;95.30;;;;;;5035675;28;20028;-80
2023/01/24 07:07:58;;;;;;;33.97;18.90;;;3.90;95.30;;;;;;5038578;28;20025;-80
2023/01/24 07:10:23;;;;;;;31.03;18.80;;;3.90;95.30;;;;;;5055494;28;20519;-81
2023/01/24 07:12:49;;;;;;;33.57;20.03;;;3.90;95.40;;;;;;5038567;28;20033;-81
2023/01/24 07:15:15;;;;;;;39.03;21.30;;;3.90;95.40;;;;;;5035663;28;20109;-81
2023/01/24 07:17:41;;;;;;;35.57;20.30;;;3.90;95.40;;;;;;5055325;28;20453;-81
2023/01/24 07:20:08;;;;;;;34.40;19.27;;;3.90;95.40;;;;;;5055261;28;20021;-81
2023/01/24 07:22:37;;;;;;;35.80;19.43;;;3.90;95.40;;;;;;5054686;28;20505;-80
2023/01/24 07:25:03;;;;;;;33.67;20.23;;;3.90;95.40;;;;;;5054321;28;20443;-81
2023/01/24 07:27:28;;;;;;;34.90;20.43;;;3.90;95.50;;;;;;5038096;28;20021;-81
2023/01/24 07:29:54;;;;;;;32.87;20.47;;;3.90;95.40;;;;;;5054786;28;20385;-81
2023/01/24 07:32:20;;;;;;;31.77;19.23;;;3.90;95.50;;;;;;5055034;28;20028;-81
2023/01/24 07:34:45;;;;;;;37.70;21.07;;;3.90;95.50;;;;;;5037919;28;20135;-81
2023/01/24 07:37:11;;;;;;;32.63;18.17;;;3.80;95.40;;;;;;5038118;28;20033;-81
2023/01/24 07:39:36;;;;;;;35.20;19.53;;;3.80;95.50;;;;;;5038066;28;20036;-81
2023/01/24 07:42:02;;;;;;;33.53;19.60;;;3.80;95.40;;;;;;5038345;28;20060;-81
2023/01/24 07:44:28;;;;;;;26.77;16.00;;;3.80;95.50;;;;;;5037825;28;20087;-81
2023/01/24 07:46:54;;;;;;;33.13;19.47;;;3.80;95.60;;;;;;5038362;28;20025;-81
2023/01/24 07:49:19;;;;;;;34.93;19.90;;;3.80;95.50;;;;;;5054356;28;20053;-81
2023/01/24 07:51:48;;;;;;;37.30;20.53;;;3.80;95.50;;;;;;5038240;28;20032;-81
2023/01/24 07:54:14;;;;;;;35.30;21.43;;;3.80;95.60;;;;;;5038379;28;20029;-81
2023/01/24 07:56:39;;;;;;;33.60;19.80;;;3.80;95.60;;;;;;5054663;28;20111;-81
2023/01/24 07:59:05;;;;;;;34.30;21.13;;;3.80;95.60;;;;;;5038109;28;20616;-81
2023/01/24 08:01:31;;;;;;;35.50;20.63;;;3.80;95.70;;;;;;5038128;28;20131;-81
2023/01/24 08:03:57;;;;;;;36.93;21.97;;;3.70;95.70;;;;;;5054300;28;20048;-81
2023/01/24 08:06:23;;;;;;;33.90;19.47;;;3.70;95.70;;;;;;5053923;28;20071;-81
2023/01/24 08:08:49;;;;;;;33.30;19.60;;;3.90;95.80;;;;;;5054398;28;20033;-82
2023/01/24 08:11:17;;;;;;;37.13;20.50;;;3.80;95.80;;;;;;5054187;28;20040;-81
2023/01/24 08:13:43;;;;;;;35.50;20.43;;;3.80;95.70;;;;;;5054141;28;20083;-81
2023/01/24 08:16:09;;;;;;;34.03;20.73;;;3.80;95.80;;;;;;5054532;28;20407;-81
2023/01/24 08:18:37;;;;;;;33.03;19.83;;;4.00;95.90;;;;;;5036956;28;20025;-81
2023/01/24 08:21:04;;;;;;;32.13;19.03;;;3.80;95.80;;;;;;5054055;28;20055;-81
2023/01/24 08:23:29;;;;;;;33.70;20.00;;;3.90;96.20;;;;;;5054164;28;20033;-81
2023/01/24 08:25:57;;;;;;;32.20;19.20;;;3.90;95.90;;;;;;5037595;28;20032;-81
2023/01/24 08:28:23;;;;;;;30.77;18.27;;;3.90;95.90;;;;;;5055359;28;20457;-81
2023/01/24 08:30:49;;;;;;;33.37;19.93;;;3.90;95.90;;;;;;5037148;28;20052;-81
2023/01/24 08:33:18;;;;;;;31.83;19.37;;;3.90;96.00;;;;;;5037613;28;20036;-81
2023/01/24 08:35:45;;;;;;;35.37;20.80;;;4.00;96.10;;;;;;5037316;28;20037;-81
2023/01/24 08:38:14;;;;;;;33.97;20.43;;;3.90;96.10;;;;;;5037482;28;20025;-81
2023/01/24 08:40:41;;;;;;;30.13;18.33;;;3.80;96.00;;;;;;5054716;28;20021;-81
2023/01/24 08:43:07;;;;;;;31.67;19.23;;;4.00;96.10;;;;;;5054266;28;20114;-81
2023/01/24 08:45:33;;;;;;;31.63;19.77;;;4.00;95.90;;;;;;5053476;28;20381;-82
2023/01/24 08:47:59;;;;;;;30.67;18.20;;;4.00;95.90;;;;;;5053833;28;20069;-81
2023/01/24 08:50:25;;;;;;;32.40;19.50;;;4.00;95.90;;;;;;5037100;28;20021;-81
2023/01/24 08:52:54;;;;;;;32.97;18.67;;;3.90;95.80;;;;;;5053881;28;20039;-81
2023/01/24 08:55:20;;;;;;;31.20;18.37;;;4.00;95.80;;;;;;5053667;28;20025;-81
2023/01/24 08:57:45;;;;;;;30.97;18.03;;;4.00;95.90;;;;;;5036543;28;20481;-81
2023/01/24 09:00:11;;;;;;;35.93;21.03;;;4.00;95.80;;;;;;5036860;28;20116;-81
2023/01/24 09:02:38;;;;;;;34.10;20.77;;;4.00;95.70;;;;;;5036450;28;20033;-81
2023/01/24 09:05:05;;;;;;;32.50;18.43;;;3.90;95.80;;;;;;5053013;28;20033;-81
2023/01/24 09:07:31;;;;;;;34.33;20.00;;;4.00;95.80;;;;;;5053238;28;20032;-80
2023/01/24 09:09:56;;;;;;;32.40;19.70;;;4.00;95.80;;;;;;5053740;28;20444;-81
2023/01/24 09:12:22;;;;;;;31.50;19.13;;;4.10;95.80;;;;;;5036572;28;20025;-81
2023/01/24 09:14:47;;;;;;;32.03;19.20;;;4.00;95.80;;;;;;5053010;28;20025;-81
2023/01/24 09:17:13;;;;;;;33.17;19.87;;;4.00;95.80;;;;;;5036532;28;20036;-81
2023/01/24 09:19:39;;;;;;;31.30;18.80;;;4.10;95.80;;;;;;5036462;28;20056;-81
2023/01/24 09:22:04;;;;;;;33.17;19.57;;;4.10;95.70;;;;;;5036587;28;20435;-81
2023/01/24 09:24:30;;;;;;;30.57;19.43;;;4.00;95.60;;;;;;5036152;28;20041;-81
2023/01/24 09:26:55;;;;;;;37.00;19.57;;;4.10;95.60;;;;;;5053430;28;20381;-81
2023/01/24 09:29:21;;;;;;;35.17;20.27;;;4.10;95.60;;;;;;5035278;28;20036;-81
2023/01/24 09:31:48;;;;;;;30.03;19.27;;;4.10;95.40;;;;;;5052644;28;20017;-81
2023/01/24 09:34:14;;;;;;;32.30;18.70;;;4.10;95.40;;;;;;5052873;28;20021;-81
2023/01/24 09:36:39;;;;;;;29.73;17.87;;;4.10;95.50;;;;;;5035375;28;20032;-81
2023/01/24 09:39:05;;;;;;;30.23;18.77;;;4.10;95.50;;;;;;5053835;28;20033;-81
2023/01/24 09:41:33;;;;;;;30.97;18.37;;;4.10;95.60;;;;;;5052671;28;20064;-81
2023/01/24 09:44:08;;;;;;;31.70;19.20;;;4.10;95.60;;;;;;5053808;28;20412;-81
2023/01/24 09:46:41;;;;;;;30.73;18.33;;;4.20;95.60;;;;;;5052668;28;20028;-81
2023/01/24 09:49:08;;;;;;;23.15;13.52;;;4.20;95.60;;;;;;5052241;28;20043;-82
2023/01/24 09:51:36;;;;;;;33.23;18.60;;;4.20;95.50;;;;;;5052195;28;20385;-81
2023/01/24 09:54:05;;;;;;;30.67;18.07;;;4.20;95.40;;;;;;5053624;28;20117;-81
2023/01/24 09:56:40;;;;;;;29.07;16.77;;;4.20;95.40;;;;;;5035624;28;20120;-81
2023/01/24 09:59:21;;;;;;;28.80;17.17;;;4.20;95.50;;;;;;5052094;28;20500;-81
2023/01/24 10:01:49;;;;;;;31.73;18.23;;;4.30;95.50;;;;;;5053668;28;20024;-81
2023/01/24 10:04:30;;;;;;;30.90;19.13;;;4.30;95.50;;;;;;5051925;28;20037;-81
2023/01/24 10:07:05;;;;;;;30.10;17.10;;;4.30;95.40;;;;;;5051841;28;20090;-81
2023/01/24 10:09:54;;;;;;;29.23;18.07;;;4.30;95.40;;;;;;5052706;28;20031;-81
2023/01/24 10:12:19;;;;;;;29.50;18.27;;;4.30;95.40;;;;;;5052732;28;20449;-81
2023/01/24 10:15:12;;;;;;;28.63;17.03;;;4.30;95.40;;;;;;5054865;28;20052;-81
2023/01/24 10:18:03;;;;;;;27.80;17.20;;;4.30;95.70;;;;;;5054327;28;20044;-81
2023/01/24 10:20:44;;;;;;;29.33;17.97;;;4.40;95.50;;;;;;5045051;28;20472;-81
2023/01/24 10:23:17;;;;;;;27.07;16.50;;;4.40;95.50;;;;;;5051909;28;20063;-82
2023/01/24 10:25:58;;;;;;;29.43;16.87;;;4.40;95.40;;;;;;5052223;28;20032;-81
2023/01/24 10:28:38;;;;;;;29.30;17.53;;;4.40;95.40;;;;;;5052103;28;20384;-81
2023/01/24 10:31:03;;;;;;;32.27;18.73;;;4.40;95.30;;;;;;5052662;28;20032;-81
2023/01/24 10:33:39;;;;;;;29.97;19.23;;;4.50;95.20;;;;;;5053323;28;20025;-82
2023/01/24 10:36:34;;;;;;;32.37;18.83;;;4.40;95.20;;;;;;5051530;28;20031;-81
2023/01/24 10:39:00;;;;;;;29.10;18.53;;;4.40;95.10;;;;;;5052830;28;20029;-81
2023/01/24 10:41:31;;;;;;;29.93;18.33;;;4.40;95.00;;;;;;5051560;28;20036;-81
2023/01/24 10:44:03;;;;;;;27.83;18.43;;;4.40;94.80;;;;;;5051423;28;20041;-82
2023/01/24 10:46:34;;;;;;;27.83;17.97;;;4.40;94.90;;;;;;5052014;28;20473;-81
2023/01/24 10:49:01;;;;;;;27.67;17.73;;;4.40;94.90;;;;;;5051872;28;20489;-82
2023/01/24 10:51:27;;;;;;;29.60;19.17;;;4.40;94.80;;;;;;5035749;28;20432;-81
2023/01/24 10:54:00;;;;;;;30.07;18.30;;;4.40;94.70;;;;;;5051914;28;20025;-81
2023/01/24 10:56:26;;;;;;;29.23;17.27;;;4.40;94.70;;;;;;5053055;28;20026;-82
2023/01/24 10:58:57;;;;;;;27.73;18.13;;;4.50;94.60;;;;;;5034987;28;20029;-81
2023/01/24 11:01:31;;;;;;;28.23;18.93;;;4.40;94.50;;;;;;5052670;28;20032;-81
2023/01/24 11:03:57;;;;;;;31.93;19.30;;;4.40;94.30;;;;;;5051709;28;20040;-82
2023/01/24 11:06:32;;;;;;;29.47;18.90;;;4.40;94.20;;;;;;5034657;28;20124;-82
2023/01/24 11:09:24;;;;;;;28.43;17.27;;;4.40;94.20;;;;;;5051677;28;20063;-81
2023/01/24 11:11:55;;;;;;;28.17;17.20;;;4.40;94.30;;;;;;5044718;28;20120;-81
2023/01/24 11:14:22;;;;;;;23.77;15.27;;;4.40;94.40;;;;;;5052712;28;20017;-81
2023/01/24 11:16:51;;;;;;;25.93;16.77;;;4.40;94.40;;;;;;5051705;28;20026;-81
2023/01/24 11:19:30;;;;;;;27.03;16.73;;;4.40;94.40;;;;;;5051767;28;20025;-80
2023/01/24 11:22:02;;;;;;;26.33;15.73;;;4.40;94.50;;;;;;5051326;28;20021;-81
2023/01/24 11:24:29;;;;;;;26.33;16.63;;;4.40;94.30;;;;;;5051302;28;20381;-80
2023/01/24 11:27:16;;;;;;;26.63;15.77;;;4.40;94.30;;;;;;5052675;28;20070;-82
2023/01/24 11:29:42;;;;;;;27.03;16.27;;;4.50;94.40;;;;;;5050704;28;20367;-81
2023/01/24 11:32:23;;;;;;;25.17;15.63;;;4.50;94.20;;;;;;5052459;28;20062;-81
2023/01/24 11:34:58;;;;;;;25.23;15.13;;;4.50;94.20;;;;;;5050965;28;20025;-81
2023/01/24 11:37:29;;;;;;;25.47;15.43;;;4.50;94.30;;;;;;5052633;28;20025;-81
2023/01/24 11:40:14;;;;;;;22.40;14.50;;;4.50;94.30;;;;;;5050907;28;20465;-81
2023/01/24 11:43:08;;;;;;;21.75;13.60;;;4.60;94.40;;;;;;5052183;28;20025;-81
2023/01/24 11:46:05;;;;;;;26.52;16.45;;;4.60;94.30;;;;;;5051398;28;20440;-81
2023/01/24 11:48:49;;;;;;;23.77;15.10;;;4.60;94.00;;;;;;5050980;28;20041;-81
2023/01/24 11:51:36;;;;;;;23.40;15.35;;;4.60;94.00;;;;;;5051388;28;20138;-81
2023/01/24 11:54:40;;;;;;;23.13;14.93;;;4.60;94.00;;;;;;5054457;28;20529;-80
2023/01/24 11:57:20;;;;;;;26.97;15.27;;;4.60;94.00;;;;;;5017801;28;20032;-81
2023/01/24 12:00:21;;;;;;;24.43;15.13;;;4.60;93.90;;;;;;5017938;28;20028;-81
2023/01/24 12:03:05;;;;;;;22.60;14.17;;;4.60;93.90;;;;;;5046481;28;20072;-81
2023/01/24 12:06:09;;;;;;;25.73;14.93;;;4.60;93.90;;;;;;5055828;28;20033;-81
2023/01/24 12:09:08;;;;;;;24.57;15.27;;;4.70;93.80;;;;;;5054591;28;20040;-80
2023/01/24 12:11:59;;;;;;;23.53;14.50;;;4.70;93.50;;;;;;5054687;28;20021;-81
2023/01/24 12:14:43;;;;;;;24.40;14.00;;;4.70;93.30;;;;;;5045547;28;20056;-81
2023/01/24 12:17:18;;;;;;;25.50;15.20;;;4.70;93.30;;;;;;5053889;28;20021;-81
2023/01/24 12:20:23;;;;;;;23.20;13.70;;;4.70;93.30;;;;;;5055330;28;20071;-81
2023/01/24 12:22:53;;;;;;;21.15;13.43;;;4.60;93.50;;;;;;5055011;28;20031;-81
2023/01/24 12:25:18;;;;;;;21.30;14.00;;;4.80;93.30;;;;;;5037938;28;20032;-81
2023/01/24 12:27:46;;;;;;;21.10;13.93;;;4.70;93.20;;;;;;5054339;28;20432;-81
2023/01/24 12:30:21;;;;;;;23.53;14.40;;;4.70;93.10;;;;;;5037491;28;20033;-80
2023/01/24 12:32:53;;;;;;;24.13;15.13;;;4.70;93.20;;;;;;5053427;28;20029;-80
2023/01/24 12:35:22;;;;;;;20.50;12.87;;;4.70;93.30;;;;;;5053209;28;20039;-80
2023/01/24 12:38:16;;;;;;;19.37;12.90;;;4.70;93.40;;;;;;5054229;28;20507;-81
2023/01/24 12:40:57;;;;;;;18.93;11.83;;;4.70;93.30;;;;;;5053827;28;20091;-80
2023/01/24 12:43:59;;;;;;;18.73;11.50;;;4.80;93.40;;;;;;5054047;28;20699;-80
2023/01/24 12:46:39;;;;;;;21.83;12.80;;;4.80;93.30;;;;;;5055396;28;20495;-81
2023/01/24 12:49:15;;;;;;;19.23;12.70;;;4.80;93.00;;;;;;5055114;28;20047;-80
2023/01/24 12:51:59;;;;;;;18.87;12.53;;;4.80;93.00;;;;;;5054065;28;20045;-81
2023/01/24 12:54:44;;;;;;;22.50;12.55;;;4.80;93.00;;;;;;5055818;28;20025;-80
2023/01/24 12:57:38;;;;;;;23.50;13.67;;;4.80;93.10;;;;;;5053825;28;20078;-80
2023/01/24 13:00:18;;;;;;;20.63;12.35;;;4.80;92.90;;;;;;5053602;28;20496;-80
2023/01/24 13:03:10;;;;;;;17.60;11.17;;;4.80;92.90;;;;;;5053521;28;20381;-81
2023/01/24 13:06:22;;;;;;;17.20;10.87;;;4.80;93.00;;;;;;5054069;28;20032;-81
2023/01/24 13:08:50;;;;;;;19.93;12.10;;;4.80;93.10;;;;;;4996015;28;20026;-80
2023/01/24 13:11:22;;;;;;;18.60;11.73;;;4.80;93.10;;;;;;5012266;28;20046;-81
2023/01/24 13:13:47;;;;;;;17.87;12.00;;;4.90;93.20;;;;;;5036832;28;20037;-80
2023/01/24 13:16:27;;;;;;;18.33;11.80;;;4.90;93.10;;;;;;5054461;28;20074;-81
2023/01/24 13:19:16;;;;;;;19.83;11.70;;;4.80;93.00;;;;;;5052864;28;20025;-81
2023/01/24 13:22:06;;;;;;;22.23;13.10;;;4.90;93.00;;;;;;5054584;28;20033;-81
2023/01/24 13:24:34;;;;;;;18.30;11.73;;;4.80;93.00;;;;;;5053634;28;20037;-80
2023/01/24 13:27:16;;;;;;;19.53;11.27;;;4.90;92.90;;;;;;5053908;28;20029;-81
2023/01/24 13:29:49;;;;;;;20.23;12.23;;;4.90;93.00;;;;;;5052643;28;20025;-82
2023/01/24 13:32:17;;;;;;;19.23;11.87;;;4.80;93.00;;;;;;5052902;28;20029;-81